Time;durP1;ratioP1;P1;durP2;ratioP2;P2;SDS_P1;SDS_P2;PMS_P1;PMS_P2;Temp;Humidity;BMP_temperature;BMP_pressure;BME280_temperature;BME280_humidity;BME280_pressure;Samples;Min_cycle;Max_cycle;Signal;HPM_P1;HPM_P2
2021/10/22 00:00:50;;;;;;;20.70;4.95;;;;;;;;;;5095156;28;20020;-64
2021/10/22 00:03:16;;;;;;;18.50;4.10;;;;;;;;;;5076757;28;20042;-64
2021/10/22 00:05:42;;;;;;;19.83;4.70;;;;;;;;;;5076982;28;20046;-64
2021/10/22 00:08:08;;;;;;;23.38;5.80;;;;;;;;;;5095488;28;20054;-66
2021/10/22 00:10:34;;;;;;;22.10;5.18;;;;;;;;;;5095334;28;20056;-64
2021/10/22 00:13:00;;;;;;;19.48;4.55;;;;;;;;;;5076988;28;20042;-65
2021/10/22 00:15:27;;;;;;;23.10;5.68;;;;;;;;;;5076999;28;20016;-64
2021/10/22 00:17:53;;;;;;;21.27;4.95;;;;;;;;;;5076958;28;20065;-65
2021/10/22 00:20:19;;;;;;;16.60;5.55;;;;;;;;;;5094609;28;20023;-65
2021/10/22 00:22:45;;;;;;;24.48;6.28;;;;;;;;;;5094864;28;20097;-65
2021/10/22 00:25:11;;;;;;;21.08;5.28;;;;;;;;;;5094776;28;20024;-66
2021/10/22 00:27:38;;;;;;;20.48;4.53;;;;;;;;;;5076569;28;20035;-65
2021/10/22 00:30:04;;;;;;;19.35;4.32;;;;;;;;;;5076474;28;20537;-64
2021/10/22 00:32:30;;;;;;;23.05;6.28;;;;;;;;;;5094503;28;20024;-65
2021/10/22 00:34:56;;;;;;;21.65;5.35;;;;;;;;;;5094215;28;20023;-63
2021/10/22 00:37:23;;;;;;;24.70;4.53;;;;;;;;;;5075796;28;20012;-65
2021/10/22 00:39:49;;;;;;;23.13;5.13;;;;;;;;;;5094131;28;20066;-64
2021/10/22 00:42:16;;;;;;;21.15;4.53;;;;;;;;;;5075902;28;20028;-64
2021/10/22 00:44:42;;;;;;;18.27;4.07;;;;;;;;;;5076033;28;20062;-65
2021/10/22 00:47:09;;;;;;;19.15;5.80;;;;;;;;;;5075508;28;20401;-66
2021/10/22 00:49:35;;;;;;;19.63;4.47;;;;;;;;;;5093452;28;20459;-64
2021/10/22 00:52:02;;;;;;;19.52;4.53;;;;;;;;;;5094111;28;20027;-64
2021/10/22 00:54:28;;;;;;;16.15;4.57;;;;;;;;;;5094182;28;20020;-64
2021/10/22 00:56:54;;;;;;;22.55;4.38;;;;;;;;;;5075639;28;20103;-64
2021/10/22 00:59:20;;;;;;;23.38;4.97;;;;;;;;;;5075755;28;20047;-64
2021/10/22 01:01:46;;;;;;;23.30;4.60;;;;;;;;;;5075599;28;20490;-63
2021/10/22 01:04:12;;;;;;;31.10;5.82;;;;;;;;;;5093701;28;20020;-64
2021/10/22 01:06:39;;;;;;;18.33;3.78;;;;;;;;;;5093163;28;20070;-63
2021/10/22 01:09:11;;;;;;;18.48;4.57;;;;;;;;;;5093605;28;20024;-67
2021/10/22 01:11:38;;;;;;;17.35;4.38;;;;;;;;;;5093437;28;20020;-66
2021/10/22 01:14:04;;;;;;;16.52;4.15;;;;;;;;;;5093429;28;20020;-65
2021/10/22 01:16:30;;;;;;;20.98;4.70;;;;;;;;;;5094096;28;20045;-65
2021/10/22 01:18:56;;;;;;;21.65;4.95;;;;;;;;;;5075800;28;20050;-60
2021/10/22 01:21:22;;;;;;;18.33;4.30;;;;;;;;;;5093719;28;20399;-63
2021/10/22 01:23:48;;;;;;;24.35;5.65;;;;;;;;;;5093462;28;20020;-62
2021/10/22 01:26:15;;;;;;;16.85;4.20;;;;;;;;;;5092935;28;20020;-65
2021/10/22 01:28:42;;;;;;;17.55;4.60;;;;;;;;;;5093308;28;20059;-61
2021/10/22 01:31:08;;;;;;;22.35;4.28;;;;;;;;;;5093328;28;20020;-64
2021/10/22 01:33:34;;;;;;;19.15;4.13;;;;;;;;;;5093170;28;20104;-63
2021/10/22 01:36:00;;;;;;;17.70;5.03;;;;;;;;;;5092939;28;20188;-62
2021/10/22 01:38:27;;;;;;;21.48;5.55;;;;;;;;;;5074984;28;20048;-68
2021/10/22 01:40:54;;;;;;;14.55;4.18;;;;;;;;;;5093140;28;20019;-64
2021/10/22 01:43:21;;;;;;;17.65;5.18;;;;;;;;;;5075055;28;20039;-64
2021/10/22 01:45:47;;;;;;;17.92;3.60;;;;;;;;;;5092462;28;20016;-65
2021/10/22 01:48:13;;;;;;;19.88;4.30;;;;;;;;;;5074666;28;20016;-65
2021/10/22 01:50:40;;;;;;;17.33;4.80;;;;;;;;;;5092713;28;20023;-64
2021/10/22 01:53:06;;;;;;;20.15;4.43;;;;;;;;;;5092777;28;20073;-64
2021/10/22 01:55:32;;;;;;;17.35;4.18;;;;;;;;;;5092524;28;20046;-63
2021/10/22 01:57:58;;;;;;;15.95;4.25;;;;;;;;;;5092833;28;20068;-65
2021/10/22 02:00:24;;;;;;;14.70;3.95;;;;;;;;;;5091914;28;20107;-62
2021/10/22 02:02:50;;;;;;;16.95;3.83;;;;;;;;;;5092623;28;20047;-64
2021/10/22 02:05:16;;;;;;;24.02;5.88;;;;;;;;;;5074328;28;20445;-64
2021/10/22 02:07:42;;;;;;;19.27;4.20;;;;;;;;;;5092207;28;20383;-65
2021/10/22 02:10:09;;;;;;;16.48;4.03;;;;;;;;;;5092387;28;20016;-66
2021/10/22 02:12:35;;;;;;;17.40;5.55;;;;;;;;;;5092488;28;20012;-64
2021/10/22 02:15:01;;;;;;;16.55;3.85;;;;;;;;;;5092291;28;20468;-62
2021/10/22 02:17:27;;;;;;;18.48;4.40;;;;;;;;;;5092173;28;20422;-63
2021/10/22 02:19:53;;;;;;;21.48;5.43;;;;;;;;;;5092399;28;20016;-63
2021/10/22 02:22:19;;;;;;;20.67;4.60;;;;;;;;;;5074279;28;20023;-59
2021/10/22 02:24:45;;;;;;;18.20;4.32;;;;;;;;;;5074260;28;20016;-64
2021/10/22 02:27:11;;;;;;;15.70;5.05;;;;;;;;;;5091839;28;20016;-66
2021/10/22 02:29:37;;;;;;;19.42;5.15;;;;;;;;;;5092050;28;20463;-64
2021/10/22 02:32:03;;;;;;;19.60;5.35;;;;;;;;;;5092026;28;20031;-65
2021/10/22 02:34:29;;;;;;;17.05;4.63;;;;;;;;;;5073994;28;20539;-66
2021/10/22 02:36:55;;;;;;;19.60;3.92;;;;;;;;;;5091956;28;20016;-65
2021/10/22 02:39:21;;;;;;;23.75;4.85;;;;;;;;;;5073999;28;20012;-63
2021/10/22 02:41:47;;;;;;;20.95;4.47;;;;;;;;;;5092069;28;20559;-64
2021/10/22 02:44:14;;;;;;;13.60;4.15;;;;;;;;;;5073933;28;20016;-65
2021/10/22 02:46:41;;;;;;;14.55;3.70;;;;;;;;;;5091719;28;20043;-64
2021/10/22 02:49:07;;;;;;;15.07;3.65;;;;;;;;;;5073950;28;20360;-64
2021/10/22 02:51:33;;;;;;;15.15;3.85;;;;;;;;;;5073371;28;20475;-63
2021/10/22 02:53:59;;;;;;;21.08;4.72;;;;;;;;;;5091883;28;20043;-64
2021/10/22 02:56:25;;;;;;;15.95;4.35;;;;;;;;;;5073492;28;20360;-65
2021/10/22 02:58:51;;;;;;;14.52;4.30;;;;;;;;;;5091982;28;20051;-62
2021/10/22 03:01:17;;;;;;;20.33;5.38;;;;;;;;;;5073848;28;20020;-65
2021/10/22 03:03:43;;;;;;;13.73;4.28;;;;;;;;;;5092103;28;20016;-66
2021/10/22 03:06:09;;;;;;;17.27;4.10;;;;;;;;;;5091459;28;20046;-65
2021/10/22 03:08:35;;;;;;;17.48;4.00;;;;;;;;;;5091692;28;20012;-64
2021/10/22 03:11:01;;;;;;;18.67;4.38;;;;;;;;;;5091853;28;20060;-65
2021/10/22 03:13:27;;;;;;;16.90;3.65;;;;;;;;;;5077657;28;20115;-65
2021/10/22 03:15:53;;;;;;;19.27;4.20;;;;;;;;;;5077329;28;20084;-65
2021/10/22 03:18:19;;;;;;;13.88;3.78;;;;;;;;;;5095775;28;20039;-66
2021/10/22 03:20:45;;;;;;;18.27;4.07;;;;;;;;;;5095522;28;20055;-66
2021/10/22 03:23:11;;;;;;;19.13;4.20;;;;;;;;;;5077509;28;20024;-63
2021/10/22 03:25:37;;;;;;;15.63;3.60;;;;;;;;;;5095234;28;20024;-63
2021/10/22 03:28:06;;;;;;;18.92;3.88;;;;;;;;;;5095695;28;20030;-66
2021/10/22 03:30:36;;;;;;;14.40;3.55;;;;;;;;;;5095483;28;20016;-65
2021/10/22 03:33:03;;;;;;;16.60;4.30;;;;;;;;;;5095460;28;20024;-64
2021/10/22 03:35:30;;;;;;;13.73;3.50;;;;;;;;;;5095288;28;20031;-68
2021/10/22 03:37:56;;;;;;;12.15;3.58;;;;;;;;;;5094991;28;20471;-65
2021/10/22 03:40:22;;;;;;;18.55;4.18;;;;;;;;;;5076956;28;20028;-64
2021/10/22 03:42:52;;;;;;;19.95;4.30;;;;;;;;;;5077117;28;20020;-66
2021/10/22 03:45:18;;;;;;;18.75;4.47;;;;;;;;;;5095125;28;20376;-65
2021/10/22 03:47:45;;;;;;;18.10;4.55;;;;;;;;;;5076563;28;20016;-65
2021/10/22 03:50:13;;;;;;;14.65;3.75;;;;;;;;;;5095042;28;20024;-66
2021/10/22 03:52:39;;;;;;;14.38;4.10;;;;;;;;;;5077174;28;20562;-65
2021/10/22 03:55:05;;;;;;;21.55;5.25;;;;;;;;;;5094963;28;20031;-65
2021/10/22 03:57:31;;;;;;;22.63;5.30;;;;;;;;;;5076482;28;20026;-65
2021/10/22 03:59:57;;;;;;;23.65;5.32;;;;;;;;;;5076740;28;20491;-64
2021/10/22 04:02:23;;;;;;;17.42;5.00;;;;;;;;;;5094879;28;20024;-65
2021/10/22 04:04:49;;;;;;;19.25;5.95;;;;;;;;;;5094911;28;20047;-65
2021/10/22 04:07:15;;;;;;;15.93;4.65;;;;;;;;;;5094212;28;20518;-66
2021/10/22 04:09:41;;;;;;;17.98;5.53;;;;;;;;;;5095011;28;20421;-65
2021/10/22 04:12:07;;;;;;;17.27;5.50;;;;;;;;;;5076574;28;20024;-67
2021/10/22 04:14:33;;;;;;;22.40;5.97;;;;;;;;;;5076384;28;20028;-64
2021/10/22 04:16:59;;;;;;;18.50;5.97;;;;;;;;;;5076154;28;20077;-61
2021/10/22 04:19:25;;;;;;;16.10;5.68;;;;;;;;;;5076404;28;20016;-65
2021/10/22 04:21:52;;;;;;;17.13;4.95;;;;;;;;;;5094371;28;20016;-65
2021/10/22 04:24:18;;;;;;;18.23;4.93;;;;;;;;;;5093443;28;20095;-65
2021/10/22 04:26:45;;;;;;;17.75;5.20;;;;;;;;;;5094170;28;20047;-65
2021/10/22 04:29:11;;;;;;;18.67;5.65;;;;;;;;;;5094198;28;20017;-63
2021/10/22 04:31:37;;;;;;;22.65;8.90;;;;;;;;;;5075998;28;20046;-65
2021/10/22 04:34:03;;;;;;;18.70;5.32;;;;;;;;;;5094160;28;20016;-64
2021/10/22 04:36:29;;;;;;;19.45;5.10;;;;;;;;;;5075832;28;20027;-63
2021/10/22 04:41:40;;;;;;;16.52;6.05;;;;;;;;;;5094101;28;20544;-65
2021/10/22 04:44:06;;;;;;;17.45;6.93;;;;;;;;;;5075593;28;20127;-65
2021/10/22 04:46:32;;;;;;;18.55;5.10;;;;;;;;;;5093508;28;20494;-64
2021/10/22 04:48:58;;;;;;;17.83;5.13;;;;;;;;;;5093973;28;20016;-63
2021/10/22 04:51:24;;;;;;;18.63;4.22;;;;;;;;;;5075613;28;20020;-63
2021/10/22 04:53:50;;;;;;;20.45;5.05;;;;;;;;;;5075500;28;20297;-65
2021/10/22 04:56:16;;;;;;;15.93;5.47;;;;;;;;;;5093548;28;20379;-63
2021/10/22 04:58:45;;;;;;;16.00;4.57;;;;;;;;;;5093592;28;20028;-63
2021/10/22 05:01:11;;;;;;;15.68;5.10;;;;;;;;;;5093427;28;20031;-64
2021/10/22 05:03:37;;;;;;;16.27;4.82;;;;;;;;;;5093589;28;20016;-63
2021/10/22 05:08:35;;;;;;;21.38;5.82;;;;;;;;;;5070494;28;20490;-70
2021/10/22 05:11:01;;;;;;;14.80;4.57;;;;;;;;;;5053891;28;20036;-70
2021/10/22 05:13:27;;;;;;;15.75;4.43;;;;;;;;;;5053862;28;20124;-70
2021/10/22 05:15:53;;;;;;;17.52;6.60;;;;;;;;;;5053348;28;20070;-70
2021/10/22 05:18:20;;;;;;;16.15;5.00;;;;;;;;;;5053659;28;20100;-69
2021/10/22 05:20:46;;;;;;;13.10;4.25;;;;;;;;;;5053421;28;20091;-68
2021/10/22 05:23:12;;;;;;;16.42;4.88;;;;;;;;;;5053546;28;20043;-67
2021/10/22 05:25:38;;;;;;;14.95;4.60;;;;;;;;;;5053369;28;20021;-69
2021/10/22 05:28:05;;;;;;;18.88;5.20;;;;;;;;;;5071414;28;20032;-69
2021/10/22 05:30:31;;;;;;;17.35;4.20;;;;;;;;;;5053383;28;20060;-69
2021/10/22 05:32:57;;;;;;;21.90;5.28;;;;;;;;;;5053209;28;20108;-69
2021/10/22 05:35:23;;;;;;;21.83;5.00;;;;;;;;;;5053058;28;20105;-70
2021/10/22 05:37:49;;;;;;;17.48;4.93;;;;;;;;;;5043445;28;20087;-68
2021/10/22 05:40:15;;;;;;;16.08;5.50;;;;;;;;;;5050177;28;20029;-68
2021/10/22 05:42:41;;;;;;;19.17;5.60;;;;;;;;;;5032918;28;20027;-70
2021/10/22 05:45:08;;;;;;;17.85;5.65;;;;;;;;;;5038338;28;20054;-68
2021/10/22 05:47:35;;;;;;;17.92;6.68;;;;;;;;;;5052848;28;20025;-69
2021/10/22 05:50:01;;;;;;;26.00;6.65;;;;;;;;;;5053148;28;20028;-68
2021/10/22 05:52:27;;;;;;;17.10;5.53;;;;;;;;;;5052943;28;20436;-69
2021/10/22 05:54:53;;;;;;;17.10;5.47;;;;;;;;;;5036876;28;20024;-68
2021/10/22 05:57:19;;;;;;;19.42;6.03;;;;;;;;;;5032553;28;20025;-69
2021/10/22 05:59:45;;;;;;;16.02;4.63;;;;;;;;;;5032791;28;20052;-67
2021/10/22 06:02:11;;;;;;;22.35;5.43;;;;;;;;;;5032756;28;20029;-70
2021/10/22 06:04:38;;;;;;;20.05;5.13;;;;;;;;;;5032665;28;20074;-69
2021/10/22 06:07:04;;;;;;;16.95;5.68;;;;;;;;;;5032416;28;20634;-69
2021/10/22 06:09:30;;;;;;;21.00;5.57;;;;;;;;;;5032936;28;20337;-69
2021/10/22 06:11:56;;;;;;;17.80;5.80;;;;;;;;;;5048237;28;20070;-68
2021/10/22 06:14:22;;;;;;;17.80;5.45;;;;;;;;;;5052588;28;20093;-69
2021/10/22 06:16:48;;;;;;;23.20;7.78;;;;;;;;;;5052111;28;20052;-69
2021/10/22 06:19:16;;;;;;;20.20;5.38;;;;;;;;;;5052713;28;20416;-69
2021/10/22 06:24:09;;;;;;;16.65;5.35;;;;;;;;;;5070333;28;20025;-70
2021/10/22 06:26:38;;;;;;;18.70;5.22;;;;;;;;;;5051902;28;20040;-68
2021/10/22 06:29:05;;;;;;;40.40;7.03;;;;;;;;;;5052218;28;20473;-69
2021/10/22 06:31:31;;;;;;;18.63;6.35;;;;;;;;;;5052409;28;20029;-70
2021/10/22 06:33:57;;;;;;;19.95;5.50;;;;;;;;;;5052405;28;20024;-68
2021/10/22 06:36:24;;;;;;;17.90;5.03;;;;;;;;;;5052200;28;20048;-70
2021/10/22 06:38:51;;;;;;;12.60;4.20;;;;;;;;;;5052178;28;20039;-70
2021/10/22 06:41:17;;;;;;;18.60;5.32;;;;;;;;;;5051948;28;20082;-69
2021/10/22 06:43:44;;;;;;;16.15;4.70;;;;;;;;;;5052325;28;20020;-68
2021/10/22 06:46:10;;;;;;;15.85;4.55;;;;;;;;;;5051107;28;20056;-70
2021/10/22 06:48:37;;;;;;;14.70;4.70;;;;;;;;;;5052155;28;20086;-70
2021/10/22 06:51:04;;;;;;;19.30;5.43;;;;;;;;;;5052315;28;20078;-69
2021/10/22 06:53:31;;;;;;;20.92;5.68;;;;;;;;;;5052046;28;20464;-70
2021/10/22 06:55:57;;;;;;;20.23;5.53;;;;;;;;;;5051830;28;20033;-68
2021/10/22 06:58:23;;;;;;;15.75;5.05;;;;;;;;;;5051990;28;20036;-68
2021/10/22 07:00:49;;;;;;;15.65;4.50;;;;;;;;;;5051710;28;20120;-68
2021/10/22 07:03:20;;;;;;;24.98;6.10;;;;;;;;;;5051880;28;20020;-68
2021/10/22 07:08:12;;;;;;;14.75;4.50;;;;;;;;;;5069702;28;20033;-69
2021/10/22 07:10:38;;;;;;;17.40;4.80;;;;;;;;;;5051794;28;20066;-70
2021/10/22 07:13:04;;;;;;;17.67;5.15;;;;;;;;;;5051859;28;20060;-68
2021/10/22 07:15:31;;;;;;;17.75;4.78;;;;;;;;;;5052126;28;20035;-69
2021/10/22 07:17:59;;;;;;;13.95;4.70;;;;;;;;;;5051851;28;20058;-69
2021/10/22 07:20:25;;;;;;;;;;;;;;;;;;5052442;28;20025;-70
2021/10/22 07:22:52;;;;;;;19.20;6.18;;;;;;;;;;5052049;28;19955;-70
2021/10/22 07:25:19;;;;;;;17.50;5.35;;;;;;;;;;5052040;28;20074;-70
2021/10/22 07:27:46;;;;;;;18.83;6.43;;;;;;;;;;5051588;28;20028;-71
2021/10/22 07:30:12;;;;;;;12.30;5.07;;;;;;;;;;5051769;28;20025;-70
2021/10/22 07:32:39;;;;;;;20.85;5.70;;;;;;;;;;5052050;28;20017;-66
2021/10/22 07:35:05;;;;;;;18.17;6.00;;;;;;;;;;5052227;28;20032;-66
2021/10/22 07:37:31;;;;;;;15.48;5.93;;;;;;;;;;5051704;28;20052;-64
2021/10/22 07:39:58;;;;;;;17.90;6.28;;;;;;;;;;5051542;28;20111;-66
2021/10/22 07:42:24;;;;;;;17.10;6.72;;;;;;;;;;5051738;28;20032;-66
2021/10/22 07:44:59;;;;;;;23.48;7.72;;;;;;;;;;5051592;28;20116;-68
2021/10/22 07:47:25;;;;;;;17.52;5.80;;;;;;;;;;5051871;28;20068;-66
2021/10/22 07:49:52;;;;;;;15.63;5.38;;;;;;;;;;5052281;28;20029;-66
2021/10/22 07:52:19;;;;;;;16.17;5.28;;;;;;;;;;5051658;28;20074;-67
2021/10/22 07:54:46;;;;;;;16.35;5.68;;;;;;;;;;5051435;28;20024;-68
2021/10/22 07:57:12;;;;;;;20.20;6.35;;;;;;;;;;5051446;28;20503;-64
2021/10/22 07:59:39;;;;;;;16.20;5.20;;;;;;;;;;5054188;28;20025;-67
2021/10/22 08:02:08;;;;;;;16.63;5.15;;;;;;;;;;5055145;28;20495;-66
2021/10/22 08:04:34;;;;;;;22.00;5.88;;;;;;;;;;5055470;28;20105;-65
2021/10/22 08:07:00;;;;;;;20.92;4.97;;;;;;;;;;5054507;28;20439;-63
2021/10/22 08:09:27;;;;;;;18.95;5.35;;;;;;;;;;5055456;28;20111;-63
2021/10/22 08:11:53;;;;;;;20.73;7.80;;;;;;;;;;5073209;28;20078;-63
2021/10/22 08:14:19;;;;;;;15.32;4.90;;;;;;;;;;5055099;28;20073;-65
2021/10/22 08:16:45;;;;;;;19.10;4.88;;;;;;;;;;5054349;28;20052;-65
2021/10/22 08:19:12;;;;;;;19.52;5.38;;;;;;;;;;5073363;28;20077;-64
2021/10/22 08:24:04;;;;;;;16.33;5.22;;;;;;;;;;5072736;28;20025;-65
2021/10/22 08:26:30;;;;;;;14.00;4.65;;;;;;;;;;5054598;28;20100;-70
2021/10/22 08:28:56;;;;;;;19.23;5.40;;;;;;;;;;5054635;28;20024;-68
2021/10/22 08:31:22;;;;;;;18.25;5.55;;;;;;;;;;5054642;28;20480;-69
2021/10/22 08:33:48;;;;;;;15.98;4.80;;;;;;;;;;5054748;28;20035;-68
2021/10/22 08:36:14;;;;;;;17.13;6.28;;;;;;;;;;4702475;28;10000465;-68
2021/10/22 08:38:40;;;;;;;21.13;5.43;;;;;;;;;;5050943;28;20052;-67
2021/10/22 08:41:12;;;;;;;13.60;4.53;;;;;;;;;;5051227;28;20078;-67
2021/10/22 08:43:40;;;;;;;21.00;6.05;;;;;;;;;;5051223;28;20059;-67
2021/10/22 08:46:11;;;;;;;22.17;5.55;;;;;;;;;;5051165;28;20056;-68
2021/10/22 08:48:38;;;;;;;19.60;5.28;;;;;;;;;;5051185;28;20269;-68
2021/10/22 08:51:04;;;;;;;14.60;4.75;;;;;;;;;;5051187;28;20028;-68
2021/10/22 08:53:30;;;;;;;20.90;5.80;;;;;;;;;;5051013;28;20028;-67
2021/10/22 08:55:57;;;;;;;18.25;5.22;;;;;;;;;;5069204;28;20028;-68
2021/10/22 08:58:23;;;;;;;17.65;4.78;;;;;;;;;;5069101;28;20036;-67
2021/10/22 09:00:50;;;;;;;14.48;4.82;;;;;;;;;;5051283;28;20499;-67
2021/10/22 09:03:20;;;;;;;19.23;7.20;;;;;;;;;;5051286;28;20059;-69
2021/10/22 09:06:05;;;;;;;20.33;5.60;;;;;;;;;;5068894;28;20031;-68
2021/10/22 09:08:31;;;;;;;22.58;6.38;;;;;;;;;;5069265;28;20032;-66
2021/10/22 09:10:58;;;;;;;22.10;7.15;;;;;;;;;;5068778;28;20032;-68
2021/10/22 09:13:28;;;;;;;18.17;5.38;;;;;;;;;;5051282;28;20522;-68
2021/10/22 09:15:56;;;;;;;18.23;6.03;;;;;;;;;;5068865;28;20610;-68
2021/10/22 09:18:24;;;;;;;20.50;6.50;;;;;;;;;;5068859;28;20025;-66
2021/10/22 09:20:55;;;;;;;14.13;5.10;;;;;;;;;;5050681;28;20070;-66
2021/10/22 09:23:35;;;;;;;12.65;5.32;;;;;;;;;;5050353;28;20757;-65
2021/10/22 09:26:22;;;;;;;18.25;5.40;;;;;;;;;;5068109;28;20028;-66
2021/10/22 09:28:49;;;;;;;15.75;5.68;;;;;;;;;;5068740;28;20021;-66
2021/10/22 09:31:17;;;;;;;13.52;5.38;;;;;;;;;;5068671;28;20028;-67
2021/10/22 09:33:55;;;;;;;16.15;5.63;;;;;;;;;;5068266;28;20021;-67
2021/10/22 09:36:37;;;;;;;17.73;6.15;;;;;;;;;;5067661;28;20032;-68
2021/10/22 09:39:13;;;;;;;13.63;5.45;;;;;;;;;;5050211;28;20024;-67
2021/10/22 09:41:49;;;;;;;16.58;5.95;;;;;;;;;;5050670;28;20104;-65
2021/10/22 09:44:18;;;;;;;15.75;7.10;;;;;;;;;;5047867;28;20161;-70
2021/10/22 09:46:44;;;;;;;18.88;6.35;;;;;;;;;;5048019;28;20013;-68
2021/10/22 09:49:10;;;;;;;17.98;7.47;;;;;;;;;;5030441;28;20052;-68
2021/10/22 09:51:38;;;;;;;17.10;6.63;;;;;;;;;;5048268;28;20047;-68
2021/10/22 09:54:11;;;;;;;16.98;6.60;;;;;;;;;;5030294;28;20456;-68
2021/10/22 09:56:38;;;;;;;16.30;6.95;;;;;;;;;;5048001;28;20025;-68
2021/10/22 09:59:06;;;;;;;17.67;6.20;;;;;;;;;;5048604;28;20052;-68
2021/10/22 10:01:32;;;;;;;16.52;5.80;;;;;;;;;;5048663;28;20035;-67
2021/10/22 10:03:59;;;;;;;14.63;5.05;;;;;;;;;;5049067;28;20092;-64
2021/10/22 10:06:26;;;;;;;13.77;5.43;;;;;;;;;;5048161;28;20017;-68
2021/10/22 10:08:52;;;;;;;18.23;7.95;;;;;;;;;;5030571;28;20021;-67
2021/10/22 10:11:18;;;;;;;16.95;5.53;;;;;;;;;;5030615;28;20044;-66
2021/10/22 10:13:44;;;;;;;12.93;5.28;;;;;;;;;;5048200;28;20021;-67
2021/10/22 10:16:10;;;;;;;18.90;6.30;;;;;;;;;;5047531;28;20025;-67
2021/10/22 10:18:40;;;;;;;16.42;5.78;;;;;;;;;;5048369;28;20376;-66
2021/10/22 10:21:08;;;;;;;18.75;6.32;;;;;;;;;;5047356;28;20331;-67
2021/10/22 10:23:36;;;;;;;18.63;6.80;;;;;;;;;;5048397;28;20025;-67
2021/10/22 10:26:20;;;;;;;16.77;7.03;;;;;;;;;;5047055;28;20345;-66
2021/10/22 10:28:47;;;;;;;17.05;6.82;;;;;;;;;;5029303;28;20020;-67
2021/10/22 10:31:32;;;;;;;17.67;6.93;;;;;;;;;;5029867;28;20029;-67
2021/10/22 10:33:59;;;;;;;19.17;6.88;;;;;;;;;;5029936;28;20029;-66
2021/10/22 10:36:44;;;;;;;19.80;7.35;;;;;;;;;;5055567;28;20025;-67
2021/10/22 10:39:10;;;;;;;18.92;7.47;;;;;;;;;;5049980;28;20039;-67
2021/10/22 10:41:36;;;;;;;19.67;7.35;;;;;;;;;;5049866;28;20033;-67
2021/10/22 10:44:22;;;;;;;16.92;6.10;;;;;;;;;;5067761;28;20027;-67
2021/10/22 10:46:49;;;;;;;18.65;6.45;;;;;;;;;;5067368;28;20017;-66
2021/10/22 10:49:33;;;;;;;18.70;6.35;;;;;;;;;;5067643;28;20024;-68
2021/10/22 10:51:59;;;;;;;17.48;5.65;;;;;;;;;;5049299;28;20029;-65
2021/10/22 10:54:34;;;;;;;20.75;7.00;;;;;;;;;;5067977;28;20526;-66
2021/10/22 10:57:20;;;;;;;19.08;5.75;;;;;;;;;;5067563;28;20022;-67
2021/10/22 10:59:47;;;;;;;18.88;7.82;;;;;;;;;;5067628;28;20065;-67
2021/10/22 11:02:13;;;;;;;19.67;6.90;;;;;;;;;;5067834;28;20031;-66
2021/10/22 11:04:49;;;;;;;19.40;6.47;;;;;;;;;;5067599;28;20411;-68
2021/10/22 11:07:34;;;;;;;16.23;5.97;;;;;;;;;;5093786;23;20110;-68
2021/10/22 11:10:00;;;;;;;24.38;7.38;;;;;;;;;;5072965;28;20455;-69
2021/10/22 11:12:26;;;;;;;15.23;6.40;;;;;;;;;;5072902;28;20516;-68
2021/10/22 11:14:58;;;;;;;15.63;6.63;;;;;;;;;;5072919;28;20028;-67
2021/10/22 11:17:28;;;;;;;20.70;7.50;;;;;;;;;;5072824;28;20169;-68
2021/10/22 11:19:57;;;;;;;18.70;6.20;;;;;;;;;;5073095;28;20027;-68
2021/10/22 11:22:26;;;;;;;12.85;5.72;;;;;;;;;;5072505;28;20024;-68
2021/10/22 11:24:52;;;;;;;18.52;6.38;;;;;;;;;;5072430;28;20016;-68
2021/10/22 11:27:19;;;;;;;17.60;5.35;;;;;;;;;;5072423;28;20035;-70
2021/10/22 11:29:49;;;;;;;16.35;6.75;;;;;;;;;;5072735;28;20024;-69
2021/10/22 11:32:16;;;;;;;16.33;5.90;;;;;;;;;;5073350;28;20028;-67
2021/10/22 11:34:46;;;;;;;17.88;6.07;;;;;;;;;;5076688;28;20024;-66
2021/10/22 11:37:15;;;;;;;15.65;5.85;;;;;;;;;;5076206;28;20024;-70
2021/10/22 11:39:49;;;;;;;16.70;5.85;;;;;;;;;;5076002;28;20093;-69
2021/10/22 11:42:18;;;;;;;14.23;5.22;;;;;;;;;;5075970;28;20369;-67
2021/10/22 11:44:44;;;;;;;15.93;6.45;;;;;;;;;;5076265;28;20123;-68
2021/10/22 11:47:12;;;;;;;20.27;7.68;;;;;;;;;;5075674;28;20168;-67
2021/10/22 11:49:38;;;;;;;20.75;6.55;;;;;;;;;;5075744;28;20027;-69
2021/10/22 11:52:07;;;;;;;15.60;6.55;;;;;;;;;;5076322;28;20028;-68
2021/10/22 11:54:39;;;;;;;15.23;6.07;;;;;;;;;;5076095;28;20119;-69
2021/10/22 11:57:08;;;;;;;23.45;6.03;;;;;;;;;;5075587;28;20032;-70
2021/10/22 11:59:34;;;;;;;15.73;5.55;;;;;;;;;;5076424;28;20028;-68
2021/10/22 12:02:04;;;;;;;15.32;5.65;;;;;;;;;;5076693;28;20396;-69
2021/10/22 12:04:31;;;;;;;15.57;6.10;;;;;;;;;;5075965;28;20024;-69
2021/10/22 12:07:01;;;;;;;17.40;6.80;;;;;;;;;;5076335;28;20024;-66
2021/10/22 12:09:28;;;;;;;16.70;5.65;;;;;;;;;;5075976;28;20024;-68
2021/10/22 12:12:04;;;;;;;16.52;6.93;;;;;;;;;;5076359;28;20077;-68
2021/10/22 12:14:32;;;;;;;17.50;6.15;;;;;;;;;;5076193;28;20391;-67
2021/10/22 12:17:05;;;;;;;15.33;5.70;;;;;;;;;;5064616;28;20032;-68
2021/10/22 12:19:32;;;;;;;13.20;5.30;;;;;;;;;;5063919;28;20021;-67
2021/10/22 12:21:58;;;;;;;17.20;6.32;;;;;;;;;;5055108;28;20060;-68
2021/10/22 12:24:24;;;;;;;17.75;5.68;;;;;;;;;;5068976;28;20028;-66
2021/10/22 12:27:04;;;;;;;15.32;5.60;;;;;;;;;;5075334;28;20022;-66
2021/10/22 12:29:44;;;;;;;15.32;5.57;;;;;;;;;;5075500;28;20024;-65
2021/10/22 12:32:10;;;;;;;13.23;5.82;;;;;;;;;;5075380;28;20092;-66
2021/10/22 12:34:36;;;;;;;16.92;5.40;;;;;;;;;;5075334;28;20028;-65
2021/10/22 12:37:10;;;;;;;20.63;5.30;;;;;;;;;;5075061;28;20024;-67
2021/10/22 12:39:41;;;;;;;13.77;5.38;;;;;;;;;;5076010;28;20035;-66
2021/10/22 12:42:20;;;;;;;19.38;6.82;;;;;;;;;;5075651;28;20020;-68
2021/10/22 12:44:46;;;;;;;15.50;6.10;;;;;;;;;;5069217;28;20115;-65
2021/10/22 12:47:12;;;;;;;23.02;7.30;;;;;;;;;;5066179;28;20031;-66
2021/10/22 12:49:38;;;;;;;23.48;8.07;;;;;;;;;;5065450;28;20046;-65
2021/10/22 12:52:05;;;;;;;17.08;5.70;;;;;;;;;;5064613;28;20020;-66
2021/10/22 12:54:51;;;;;;;19.05;6.72;;;;;;;;;;5062872;28;20028;-64
2021/10/22 12:57:24;;;;;;;16.08;5.15;;;;;;;;;;5067613;28;20028;-64
2021/10/22 12:59:51;;;;;;;16.70;6.35;;;;;;;;;;5062837;28;20035;-66
2021/10/22 13:02:33;;;;;;;20.98;5.10;;;;;;;;;;5062196;28;20368;-65
2021/10/22 13:05:06;;;;;;;17.60;5.22;;;;;;;;;;5054389;28;20028;-65
2021/10/22 13:07:43;;;;;;;20.15;5.30;;;;;;;;;;5067656;28;20399;-67
2021/10/22 13:10:23;;;;;;;14.80;8.10;;;;;;;;;;5074320;28;20024;-66
2021/10/22 13:12:59;;;;;;;20.00;13.27;;;;;;;;;;5074910;28;20464;-68
2021/10/22 13:15:46;;;;;;;20.00;14.27;;;;;;;;;;5074145;28;20397;-64
2021/10/22 13:21:17;;;;;;;17.42;11.20;;;;;;;;;;5030173;28;20512;-66
2021/10/22 13:23:44;;;;;;;20.65;14.50;;;;;;;;;;5013681;28;20025;-65
2021/10/22 13:26:10;;;;;;;18.40;12.80;;;;;;;;;;5042014;28;20039;-65
2021/10/22 13:28:36;;;;;;;18.65;13.88;;;;;;;;;;5074206;28;20056;-67
2021/10/22 13:31:07;;;;;;;23.55;16.42;;;;;;;;;;5074181;28;20039;-66
2021/10/22 13:33:33;;;;;;;22.95;16.83;;;;;;;;;;5073694;28;20020;-69
2021/10/22 13:36:05;;;;;;;18.70;12.52;;;;;;;;;;5073763;28;20032;-68
2021/10/22 13:38:31;;;;;;;18.92;12.82;;;;;;;;;;5073964;28;20039;-66
2021/10/22 13:40:58;;;;;;;19.17;12.00;;;;;;;;;;5073758;28;20050;-65
2021/10/22 13:43:24;;;;;;;17.67;11.17;;;;;;;;;;4355630;28;10000723;-66
2021/10/22 13:45:50;;;;;;;18.38;11.10;;;;;;;;;;5055889;28;20089;-67
2021/10/22 13:48:17;;;;;;;18.48;9.88;;;;;;;;;;5070035;28;20027;-66
2021/10/22 13:50:43;;;;;;;15.40;9.75;;;;;;;;;;5070566;28;20406;-67
2021/10/22 13:53:11;;;;;;;16.92;8.63;;;;;;;;;;5070163;28;20035;-67
2021/10/22 13:55:37;;;;;;;13.52;5.90;;;;;;;;;;5069553;28;20055;-67
2021/10/22 13:58:04;;;;;;;13.88;5.00;;;;;;;;;;5064724;28;20054;-64
2021/10/22 14:00:30;;;;;;;18.88;5.38;;;;;;;;;;5061062;28;20032;-68
2021/10/22 14:02:56;;;;;;;11.32;4.72;;;;;;;;;;5059082;28;20053;-66
2021/10/22 14:05:22;;;;;;;14.43;4.10;;;;;;;;;;5061180;28;20023;-67
2021/10/22 14:07:48;;;;;;;13.55;3.65;;;;;;;;;;5056881;28;20024;-68
2021/10/22 14:10:14;;;;;;;11.40;3.30;;;;;;;;;;5057457;28;20056;-68
2021/10/22 14:12:57;;;;;;;12.50;4.13;;;;;;;;;;5060117;28;20492;-68
2021/10/22 14:18:14;;;;;;;16.50;4.00;;;;;;;;;;5078380;28;20491;-67
2021/10/22 14:31:09;;;;;;;11.52;3.50;;;;;;;;;;5079076;28;20042;-65
2021/10/22 14:33:35;;;;;;;14.60;3.40;;;;;;;;;;5060374;28;20119;-68
2021/10/22 14:36:01;;;;;;;13.82;3.85;;;;;;;;;;5052963;28;20568;-67
2021/10/22 14:38:27;;;;;;;9.30;3.30;;;;;;;;;;5061624;28;20028;-66
2021/10/22 14:40:55;;;;;;;12.30;3.70;;;;;;;;;;5067362;28;20025;-66
2021/10/22 14:43:29;;;;;;;11.88;3.60;;;;;;;;;;5067338;28;20068;-68
2021/10/22 14:48:28;;;;;;;15.82;5.53;;;;;;;;;;5073933;28;20029;-64
2021/10/22 14:50:54;;;;;;;11.77;5.00;;;;;;;;;;5056849;28;20028;-68
2021/10/22 14:53:37;;;;;;;12.73;5.10;;;;;;;;;;5058628;28;20036;-67
2021/10/22 14:56:03;;;;;;;14.52;5.30;;;;;;;;;;5059921;28;20112;-69
2021/10/22 14:58:29;;;;;;;12.10;4.28;;;;;;;;;;5058974;28;20033;-67
2021/10/22 15:00:56;;;;;;;11.27;4.53;;;;;;;;;;5060386;28;20368;-67
2021/10/22 15:03:22;;;;;;;12.52;4.40;;;;;;;;;;5060504;28;20029;-68